PWSweather.com
Personal Weather Stations
Station Observations
133525
French Quarters West Seneca , West Seneca, NY 14224

French Quarters West Seneca West Seneca, NY 14224

Lat: 42.850058, Lon: -78.799754

Elevation: 603

Station Type: Davis Vantage Vue pro2

http://westsenecaweather.com/

Latest ConditionsUpdated 11:00:05 AM EDT Monday, Oct 23, 2017
Currently Today's Max Today's Min Today's Average
Temperature 68.4°F20.2°C 68.4°F20.2°C 63.2°F17.3°C 65.3°F18.5°C
Dew Point 54.4°F12.4°C 54.9°F12.7°C 52.9°F11.6°C 53.8°F12.1°C
Winds 5.8 mph WNW9.3 kmh WNW 9.2 mph NW14.8 kmh NW - 4.6 mph 7.4 kmh
Wind Gusts 5.8 mph9.3 kmh 13.8 mph22.2 kmh - -
Humidity 61% 71% 61% 66%
Pressure 29.96 in1014.6 mb 30.10 in1019.3 mb 29.96 in1014.6 mb -
Hour Temp Dew Point Humidity Winds Wind Gusts Pressure Precip Precip Rate Daily Precip Total
11:00 AM 68.4°F20.2°C 54.4°F12.4°C 61% 5.8 mph WNW9.3 kmh WNW 5.8 mph9.3 kmh 29.96 in1014.6 mb - 0.00 in0.0 mm 0.00 in0.0 mm
10:50 AM 67.9°F19.9°C 54.9°F12.7°C 63% 3.5 mph W5.6 kmh W 6.9 mph11.1 kmh 29.98 in1015.2 mb - 0.00 in0.0 mm 0.00 in0.0 mm
10:40 AM 67.1°F19.5°C 54.5°F12.5°C 64% 5.8 mph WNW9.3 kmh WNW 6.9 mph11.1 kmh 29.98 in1015.2 mb - 0.00 in0.0 mm 0.00 in0.0 mm
10:30 AM 66.5°F19.2°C 54.3°F12.4°C 65% 4.6 mph NW7.4 kmh NW 9.2 mph14.8 kmh 29.98 in1015.2 mb - 0.00 in0.0 mm 0.00 in0.0 mm
10:20 AM 66.1°F18.9°C 54.4°F12.4°C 66% 6.9 mph NW11.1 kmh NW 9.2 mph14.8 kmh 29.99 in1015.6 mb - 0.00 in0.0 mm 0.00 in0.0 mm
10:10 AM 65.6°F18.7°C 54.4°F12.4°C 67% 4.6 mph WNW7.4 kmh WNW 10.4 mph16.7 kmh 29.99 in1015.6 mb - 0.00 in0.0 mm 0.00 in0.0 mm
10:00 AM 65.0°F18.3°C 54.2°F12.3°C 68% 4.6 mph NW7.4 kmh NW 6.9 mph11.1 kmh 30.00 in1015.9 mb - 0.00 in0.0 mm 0.00 in0.0 mm
09:50 AM 64.4°F18.0°C 54.4°F12.4°C 70% 4.6 mph W7.4 kmh W 6.9 mph11.1 kmh 30.00 in1015.9 mb - 0.00 in0.0 mm 0.00 in0.0 mm
09:40 AM 63.8°F17.7°C 54.2°F12.3°C 71% 2.3 mph NW3.7 kmh NW 3.5 mph5.6 kmh 30.00 in1015.9 mb - 0.00 in0.0 mm 0.00 in0.0 mm
09:30 AM 63.5°F17.5°C 53.5°F11.9°C 70% 4.6 mph N7.4 kmh N 6.9 mph11.1 kmh 30.00 in1015.9 mb - 0.00 in0.0 mm 0.00 in0.0 mm
09:20 AM 63.4°F17.4°C 53.8°F12.1°C 71% 4.6 mph N7.4 kmh N 5.8 mph9.3 kmh 30.01 in1016.3 mb - 0.00 in0.0 mm 0.00 in0.0 mm
09:10 AM 63.3°F17.4°C 53.7°F12.1°C 71% 5.8 mph N9.3 kmh N 11.5 mph18.5 kmh 30.01 in1016.3 mb - 0.00 in0.0 mm 0.00 in0.0 mm
09:00 AM 63.3°F17.4°C 53.7°F12.1°C 71% 5.8 mph N9.3 kmh N 10.4 mph16.7 kmh 30.01 in1016.3 mb - 0.00 in0.0 mm 0.00 in0.0 mm
08:50 AM 63.2°F17.3°C 53.6°F12.0°C 71% 4.6 mph N7.4 kmh N 9.2 mph14.8 kmh 30.01 in1016.3 mb - 0.00 in0.0 mm 0.00 in0.0 mm
08:40 AM 63.3°F17.4°C 53.7°F12.1°C 71% 3.5 mph N5.6 kmh N 5.8 mph9.3 kmh 30.02 in1016.6 mb - 0.00 in0.0 mm 0.00 in0.0 mm
08:30 AM 63.4°F17.4°C 53.8°F12.1°C 71% 6.9 mph N11.1 kmh N 8.1 mph13.0 kmh 30.02 in1016.6 mb - 0.00 in0.0 mm 0.00 in0.0 mm
08:20 AM 63.4°F17.4°C 53.8°F12.1°C 71% 4.6 mph N7.4 kmh N 5.8 mph9.3 kmh 30.01 in1016.3 mb - 0.00 in0.0 mm 0.00 in0.0 mm
08:10 AM 63.2°F17.3°C 53.6°F12.0°C 71% 5.8 mph N9.3 kmh N 10.4 mph16.7 kmh 30.02 in1016.6 mb - 0.00 in0.0 mm 0.00 in0.0 mm
08:00 AM 63.2°F17.3°C 53.6°F12.0°C 71% 3.5 mph N5.6 kmh N 8.1 mph13.0 kmh 30.02 in1016.6 mb - 0.00 in0.0 mm 0.00 in0.0 mm
07:50 AM 63.3°F17.4°C 53.8°F12.1°C 71% 2.3 mph N3.7 kmh N 3.5 mph5.6 kmh 30.02 in1016.6 mb - 0.00 in0.0 mm 0.00 in0.0 mm
07:40 AM 63.5°F17.5°C 53.5°F11.9°C 70% 5.8 mph N9.3 kmh N 9.2 mph14.8 kmh 30.02 in1016.6 mb - 0.00 in0.0 mm 0.00 in0.0 mm
07:30 AM 63.5°F17.5°C 53.6°F12.0°C 70% 3.5 mph N5.6 kmh N 6.9 mph11.1 kmh 30.02 in1016.6 mb - 0.00 in0.0 mm 0.00 in0.0 mm
07:20 AM 63.5°F17.5°C 53.5°F11.9°C 70% 4.6 mph N7.4 kmh N 9.2 mph14.8 kmh 30.03 in1016.9 mb - 0.00 in0.0 mm 0.00 in0.0 mm
07:10 AM 63.2°F17.3°C 53.7°F12.1°C 71% 2.3 mph N3.7 kmh N 8.1 mph13.0 kmh 30.03 in1016.9 mb - 0.00 in0.0 mm 0.00 in0.0 mm
07:00 AM 63.2°F17.3°C 53.6°F12.0°C 71% 3.5 mph N5.6 kmh N 5.8 mph9.3 kmh 30.04 in1017.3 mb - 0.00 in0.0 mm 0.00 in0.0 mm
06:50 AM 63.2°F17.3°C 53.6°F12.0°C 71% 4.6 mph NW7.4 kmh NW 8.1 mph13.0 kmh 30.04 in1017.3 mb - 0.00 in0.0 mm 0.00 in0.0 mm
06:40 AM 63.2°F17.3°C 53.2°F11.8°C 70% 2.3 mph WNW3.7 kmh WNW 4.6 mph7.4 kmh 30.04 in1017.3 mb - 0.00 in0.0 mm 0.00 in0.0 mm
06:30 AM 63.4°F17.4°C 53.4°F11.9°C 70% 2.3 mph NW3.7 kmh NW 3.5 mph5.6 kmh 30.05 in1017.6 mb - 0.00 in0.0 mm 0.00 in0.0 mm
06:20 AM 63.7°F17.6°C 52.9°F11.6°C 68% 1.2 mph NW1.9 kmh NW 2.3 mph3.7 kmh 30.05 in1017.6 mb - 0.00 in0.0 mm 0.00 in0.0 mm
06:10 AM 64.0°F17.8°C 53.2°F11.8°C 68% 2.3 mph WSW3.7 kmh WSW 3.5 mph5.6 kmh 30.05 in1017.6 mb - 0.00 in0.0 mm 0.00 in0.0 mm
06:00 AM 64.4°F18.0°C 53.2°F11.8°C 67% 1.2 mph W1.9 kmh W 4.6 mph7.4 kmh 30.05 in1017.6 mb - 0.00 in0.0 mm 0.00 in0.0 mm
05:50 AM 64.8°F18.2°C 53.6°F12.0°C 67% 5.8 mph NW9.3 kmh NW 9.2 mph14.8 kmh 30.05 in1017.6 mb - 0.00 in0.0 mm 0.00 in0.0 mm
05:40 AM 64.8°F18.2°C 53.6°F12.0°C 67% 3.5 mph WNW5.6 kmh WNW 8.1 mph13.0 kmh 30.05 in1017.6 mb - 0.00 in0.0 mm 0.00 in0.0 mm
05:30 AM 65.1°F18.4°C 53.4°F11.9°C 66% 3.5 mph WNW5.6 kmh WNW 11.5 mph18.5 kmh 30.06 in1017.9 mb - 0.00 in0.0 mm 0.00 in0.0 mm
05:20 AM 65.2°F18.4°C 53.6°F12.0°C 66% 5.8 mph NW9.3 kmh NW 10.4 mph16.7 kmh 30.06 in1017.9 mb - 0.00 in0.0 mm 0.00 in0.0 mm
05:10 AM 65.4°F18.6°C 53.3°F11.8°C 65% 4.6 mph WNW7.4 kmh WNW 8.1 mph13.0 kmh 30.05 in1017.6 mb - 0.00 in0.0 mm 0.00 in0.0 mm
05:00 AM 65.4°F18.6°C 53.3°F11.8°C 65% 3.5 mph NW5.6 kmh NW 4.6 mph7.4 kmh 30.05 in1017.6 mb - 0.00 in0.0 mm 0.00 in0.0 mm
04:50 AM 65.7°F18.7°C 53.6°F12.0°C 65% 2.3 mph W3.7 kmh W 4.6 mph7.4 kmh 30.05 in1017.6 mb - 0.00 in0.0 mm 0.00 in0.0 mm
04:40 AM 65.5°F18.6°C 53.4°F11.9°C 65% 4.6 mph NW7.4 kmh NW 9.2 mph14.8 kmh 30.05 in1017.6 mb - 0.00 in0.0 mm 0.00 in0.0 mm
04:30 AM 65.5°F18.6°C 53.8°F12.1°C 66% 2.3 mph W3.7 kmh W 3.5 mph5.6 kmh 30.06 in1017.9 mb - 0.00 in0.0 mm 0.00 in0.0 mm
04:20 AM 65.6°F18.7°C 53.5°F11.9°C 65% 4.6 mph WNW7.4 kmh WNW 5.8 mph9.3 kmh 30.06 in1017.9 mb - 0.00 in0.0 mm 0.00 in0.0 mm
04:10 AM 65.7°F18.7°C 53.6°F12.0°C 65% 4.6 mph WNW7.4 kmh WNW 3.5 mph5.6 kmh 30.06 in1017.9 mb - 0.00 in0.0 mm 0.00 in0.0 mm
04:00 AM 65.7°F18.7°C 53.6°F12.0°C 65% 4.6 mph NW7.4 kmh NW 11.5 mph18.5 kmh 30.06 in1017.9 mb - 0.00 in0.0 mm 0.00 in0.0 mm
03:50 AM 65.8°F18.8°C 53.7°F12.1°C 65% 6.9 mph NW11.1 kmh NW 8.1 mph13.0 kmh 30.07 in1018.3 mb - 0.00 in0.0 mm 0.00 in0.0 mm
03:40 AM 65.7°F18.7°C 54.0°F12.2°C 66% 5.8 mph NW9.3 kmh NW 5.8 mph9.3 kmh 30.07 in1018.3 mb - 0.00 in0.0 mm 0.00 in0.0 mm
03:30 AM 65.9°F18.8°C 53.8°F12.1°C 65% 4.6 mph NW7.4 kmh NW 8.1 mph13.0 kmh 30.07 in1018.3 mb - 0.00 in0.0 mm 0.00 in0.0 mm
03:20 AM 65.8°F18.8°C 53.7°F12.1°C 65% 3.5 mph NW5.6 kmh NW 6.9 mph11.1 kmh 30.07 in1018.3 mb - 0.00 in0.0 mm 0.00 in0.0 mm
03:10 AM 66.1°F18.9°C 54.0°F12.2°C 65% 5.8 mph NW9.3 kmh NW 9.2 mph14.8 kmh 30.07 in1018.3 mb - 0.00 in0.0 mm 0.00 in0.0 mm
03:00 AM 66.1°F18.9°C 54.0°F12.2°C 65% 4.6 mph NW7.4 kmh NW 9.2 mph14.8 kmh 30.07 in1018.3 mb - 0.00 in0.0 mm 0.00 in0.0 mm
02:50 AM 66.2°F19.0°C 54.1°F12.3°C 65% 4.6 mph WNW7.4 kmh WNW 10.4 mph16.7 kmh 30.07 in1018.3 mb - 0.00 in0.0 mm 0.00 in0.0 mm
02:40 AM 66.2°F19.0°C 54.1°F12.3°C 65% 4.6 mph WNW7.4 kmh WNW 9.2 mph14.8 kmh 30.07 in1018.3 mb - 0.00 in0.0 mm 0.00 in0.0 mm
02:30 AM 66.2°F19.0°C 53.7°F12.1°C 64% 5.8 mph NW9.3 kmh NW 8.1 mph13.0 kmh 30.07 in1018.3 mb - 0.00 in0.0 mm 0.00 in0.0 mm
02:20 AM 66.4°F19.1°C 53.8°F12.1°C 64% 4.6 mph NW7.4 kmh NW 8.1 mph13.0 kmh 30.07 in1018.3 mb - 0.00 in0.0 mm 0.00 in0.0 mm
02:10 AM 66.5°F19.2°C 53.9°F12.2°C 64% 5.8 mph NW9.3 kmh NW 9.2 mph14.8 kmh 30.07 in1018.3 mb - 0.00 in0.0 mm 0.00 in0.0 mm
02:00 AM 66.7°F19.3°C 54.1°F12.3°C 64% 5.8 mph WNW9.3 kmh WNW 11.5 mph18.5 kmh 30.07 in1018.3 mb - 0.00 in0.0 mm 0.00 in0.0 mm
01:50 AM 66.9°F19.4°C 53.9°F12.2°C 63% 6.9 mph WNW11.1 kmh WNW 13.8 mph22.2 kmh 30.07 in1018.3 mb - 0.00 in0.0 mm 0.00 in0.0 mm
01:40 AM 66.9°F19.4°C 53.9°F12.2°C 63% 4.6 mph NW7.4 kmh NW 10.4 mph16.7 kmh 30.07 in1018.3 mb - 0.00 in0.0 mm 0.00 in0.0 mm
01:30 AM 67.2°F19.6°C 54.2°F12.3°C 63% 5.8 mph NW9.3 kmh NW 10.4 mph16.7 kmh 30.08 in1018.6 mb - 0.00 in0.0 mm 0.00 in0.0 mm
01:20 AM 67.2°F19.6°C 53.7°F12.1°C 62% 9.2 mph NW14.8 kmh NW 13.8 mph22.2 kmh 30.08 in1018.6 mb - 0.00 in0.0 mm 0.00 in0.0 mm
01:10 AM 67.5°F19.7°C 54.0°F12.2°C 62% 3.5 mph WNW5.6 kmh WNW 5.8 mph9.3 kmh 30.08 in1018.6 mb - 0.00 in0.0 mm 0.00 in0.0 mm
01:00 AM 67.3°F19.6°C 53.8°F12.1°C 62% 8.1 mph NW13.0 kmh NW 10.4 mph16.7 kmh 30.08 in1018.6 mb - 0.00 in0.0 mm 0.00 in0.0 mm
12:50 AM 67.4°F19.7°C 53.9°F12.2°C 62% 5.8 mph WNW9.3 kmh WNW 6.9 mph11.1 kmh 30.08 in1018.6 mb - 0.00 in0.0 mm 0.00 in0.0 mm
12:40 AM 67.4°F19.7°C 53.9°F12.2°C 62% 3.5 mph NW5.6 kmh NW 6.9 mph11.1 kmh 30.09 in1019.0 mb - 0.00 in0.0 mm 0.00 in0.0 mm
12:30 AM 67.3°F19.6°C 53.8°F12.1°C 62% 5.8 mph NW9.3 kmh NW 10.4 mph16.7 kmh 30.09 in1019.0 mb - 0.00 in0.0 mm 0.00 in0.0 mm
12:20 AM 67.2°F19.6°C 54.2°F12.3°C 63% 4.6 mph WNW7.4 kmh WNW 8.1 mph13.0 kmh 30.09 in1019.0 mb - 0.00 in0.0 mm 0.00 in0.0 mm
12:10 AM 67.4°F19.7°C 53.9°F12.2°C 62% 5.8 mph WNW9.3 kmh WNW 10.4 mph16.7 kmh 30.09 in1019.0 mb - 0.00 in0.0 mm 0.00 in0.0 mm
12:00 AM 67.2°F19.6°C 54.1°F12.3°C 63% 5.8 mph NW9.3 kmh NW 8.1 mph13.0 kmh 30.10 in1019.3 mb - 0.00 in0.0 mm 0.00 in0.0 mm